createdAt,value
2019-04-04T00:01:41.171Z,93.70
2019-04-04T00:04:10.721Z,93.80
2019-04-04T00:06:40.355Z,93.80
2019-04-04T00:09:11.175Z,93.80
2019-04-04T00:11:40.753Z,94.00
2019-04-04T00:14:14.004Z,94.00
2019-04-04T00:16:48.750Z,94.00
2019-04-04T00:19:24.123Z,94.10
2019-04-04T00:22:27.628Z,94.10
2019-04-04T00:24:57.331Z,94.20
2019-04-04T00:27:26.874Z,94.60
2019-04-04T00:29:56.505Z,94.60
2019-04-04T00:32:27.876Z,94.60
2019-04-04T00:34:57.883Z,94.70
2019-04-04T00:37:28.763Z,94.70
2019-04-04T00:39:58.343Z,94.70
2019-04-04T00:42:27.986Z,94.80
2019-04-04T00:44:57.586Z,94.80
2019-04-04T00:47:27.198Z,94.80
2019-04-04T00:49:56.795Z,94.90
2019-04-04T00:52:26.399Z,94.90
2019-04-04T00:54:55.994Z,94.90
2019-04-04T00:57:25.623Z,94.80
2019-04-04T00:59:55.223Z,94.90
2019-04-04T01:02:27.261Z,95.00
2019-04-04T01:04:56.158Z,94.90
2019-04-04T01:07:25.735Z,95.00
2019-04-04T01:09:55.431Z,95.40
2019-04-04T01:12:25.050Z,95.10
2019-04-04T01:14:54.675Z,95.20
2019-04-04T01:17:24.343Z,95.30
2019-04-04T01:19:53.996Z,95.30
2019-04-04T01:22:25.024Z,95.30
2019-04-04T01:24:55.003Z,95.40
2019-04-04T01:27:24.598Z,95.40
2019-04-04T01:29:54.207Z,95.40
2019-04-04T01:32:23.875Z,95.60
2019-04-04T01:34:53.463Z,95.60
2019-04-04T01:37:23.126Z,95.60
2019-04-04T01:39:52.702Z,95.70
2019-04-04T01:42:22.276Z,95.80
2019-04-04T01:44:51.885Z,95.90
2019-04-04T01:47:21.453Z,95.90
2019-04-04T01:49:51.887Z,96.00
2019-04-04T01:52:22.091Z,96.00
2019-04-04T01:54:51.664Z,96.10
2019-04-04T01:57:21.254Z,96.10
2019-04-04T01:59:50.812Z,96.50
2019-04-04T02:02:20.394Z,96.30
2019-04-04T02:04:49.943Z,96.30
2019-04-04T02:07:39.937Z,96.30
2019-04-04T02:10:10.521Z,96.30
2019-04-04T02:12:42.521Z,96.40
2019-04-04T02:15:14.260Z,96.40
2019-04-04T02:17:43.374Z,96.50
2019-04-04T02:20:12.890Z,96.50
2019-04-04T02:22:42.443Z,96.50
2019-04-04T02:25:12.171Z,96.60
2019-04-04T02:27:41.672Z,96.60
2019-04-04T02:30:34.359Z,96.60
2019-04-04T02:33:04.043Z,96.60
2019-04-04T02:35:33.511Z,96.60
2019-04-04T02:38:02.966Z,96.70
2019-04-04T02:40:41.971Z,96.70
2019-04-04T02:43:13.909Z,96.80
2019-04-04T02:45:43.473Z,96.90
2019-04-04T02:48:12.963Z,96.90
2019-04-04T02:50:42.446Z,96.90
2019-04-04T02:53:11.966Z,97.00
2019-04-04T02:55:47.552Z,97.00
2019-04-04T02:58:35.005Z,97.00
2019-04-04T03:01:04.491Z,97.10
2019-04-04T03:03:43.109Z,97.10
2019-04-04T03:06:12.613Z,97.20
2019-04-04T03:08:42.150Z,97.40
2019-04-04T03:11:57.469Z,97.20
2019-04-04T03:14:42.255Z,97.20
2019-04-04T03:17:11.761Z,97.20
2019-04-04T03:19:43.805Z,97.20
2019-04-04T03:22:12.400Z,97.10
2019-04-04T03:24:44.833Z,97.00
2019-04-04T03:27:13.108Z,97.00
2019-04-04T03:29:42.653Z,97.00
2019-04-04T03:32:14.555Z,97.00
2019-04-04T03:34:48.636Z,97.00
2019-04-04T03:37:33.615Z,97.10
2019-04-04T03:40:03.114Z,97.20
2019-04-04T03:42:32.575Z,97.30
2019-04-04T03:45:02.076Z,97.20
2019-04-04T03:47:31.549Z,97.30
2019-04-04T03:50:01.065Z,97.30
2019-04-04T03:52:30.569Z,97.20
2019-04-04T03:55:00.108Z,97.30
2019-04-04T03:57:29.579Z,97.30
2019-04-04T03:59:59.133Z,97.40
2019-04-04T04:02:28.588Z,97.40
2019-04-04T04:05:14.771Z,97.40
2019-04-04T04:07:48.046Z,97.40
2019-04-04T04:10:18.575Z,97.40
2019-04-04T04:12:48.062Z,97.40
2019-04-04T04:15:17.541Z,97.30
2019-04-04T04:17:47.069Z,97.20
2019-04-04T04:20:16.584Z,97.20
2019-04-04T04:22:50.338Z,97.50
2019-04-04T04:25:17.235Z,97.20
2019-04-04T04:27:48.366Z,97.20
2019-04-04T04:30:17.937Z,97.20
2019-04-04T04:32:55.714Z,97.30
2019-04-04T04:35:21.626Z,97.30
2019-04-04T04:37:53.469Z,97.40
2019-04-04T04:40:22.339Z,97.30
2019-04-04T04:42:51.829Z,97.40
2019-04-04T04:45:21.400Z,97.40
2019-04-04T04:47:57.385Z,97.40
2019-04-04T04:50:30.218Z,97.40
2019-04-04T04:52:59.695Z,97.40
2019-04-04T04:55:48.332Z,97.40
2019-04-04T04:58:29.958Z,96.40
2019-04-04T05:00:59.637Z,96.30
2019-04-04T05:03:29.201Z,96.50
2019-04-04T05:06:00.490Z,96.70
2019-04-04T05:08:30.221Z,96.80
2019-04-04T05:10:59.816Z,96.90
2019-04-04T05:13:29.438Z,97.00
2019-04-04T05:16:17.040Z,97.10
2019-04-04T05:18:48.154Z,97.00
2019-04-04T05:21:24.814Z,96.90
2019-04-04T05:24:26.996Z,97.00
2019-04-04T05:26:56.820Z,96.90
2019-04-04T05:29:36.777Z,96.80
2019-04-04T05:32:06.377Z,96.70
2019-04-04T05:34:36.052Z,96.60
2019-04-04T05:37:08.406Z,96.60
2019-04-04T05:39:37.948Z,96.40
2019-04-04T05:42:07.874Z,96.20
2019-04-04T05:44:41.314Z,96.10
2019-04-04T05:47:30.946Z,95.90
2019-04-04T05:50:00.888Z,95.90
2019-04-04T05:52:32.677Z,95.70
2019-04-04T05:55:02.218Z,95.70
2019-04-04T05:57:32.062Z,95.50
2019-04-04T06:00:02.014Z,95.30
2019-04-04T06:02:31.768Z,95.30
2019-04-04T06:05:01.564Z,95.10
2019-04-04T06:07:31.620Z,95.20
2019-04-04T06:10:04.026Z,95.10
2019-04-04T06:12:34.061Z,95.00
2019-04-04T06:15:04.003Z,95.00
2019-04-04T06:17:34.110Z,94.80
2019-04-04T06:20:05.899Z,94.70
2019-04-04T06:22:39.084Z,94.60
2019-04-04T06:25:24.251Z,94.20
2019-04-04T06:27:54.534Z,94.30
2019-04-04T06:30:24.391Z,93.90
2019-04-04T06:32:54.094Z,93.80
2019-04-04T06:35:31.540Z,93.70
2019-04-04T06:38:34.892Z,93.50
2019-04-04T06:41:09.758Z,93.30
2019-04-04T06:44:05.587Z,92.90
2019-04-04T06:46:35.182Z,92.50
2019-04-04T06:49:29.252Z,92.50
2019-04-04T06:52:03.278Z,91.80
2019-04-04T06:54:33.032Z,91.80
2019-04-04T06:57:04.019Z,91.10
2019-04-04T06:59:34.133Z,91.20
2019-04-04T07:02:05.325Z,90.80
2019-04-04T07:04:36.099Z,90.30
2019-04-04T07:07:05.828Z,90.20
2019-04-04T07:09:37.363Z,90.00
2019-04-04T07:12:07.290Z,90.10
2019-04-04T07:14:45.676Z,90.00
2019-04-04T07:17:09.770Z,89.80
2019-04-04T07:19:39.339Z,90.10
2019-04-04T07:22:08.988Z,89.50
2019-04-04T07:24:39.885Z,89.90
2019-04-04T07:27:09.537Z,89.50
2019-04-04T07:29:39.146Z,88.70
2019-04-04T07:32:14.987Z,88.70
2019-04-04T07:34:45.732Z,88.10
2019-04-04T07:37:16.926Z,87.60
2019-04-04T07:39:46.539Z,88.60
2019-04-04T07:42:16.333Z,88.60
2019-04-04T07:44:46.560Z,87.80
2019-04-04T07:47:16.800Z,87.50
2019-04-04T07:49:46.981Z,87.10
2019-04-04T07:52:17.490Z,87.00
2019-04-04T07:54:54.522Z,87.00
2019-04-04T07:57:24.181Z,87.40
2019-04-04T07:59:59.246Z,87.40
2019-04-04T08:02:28.928Z,85.30
2019-04-04T08:04:58.540Z,85.70
2019-04-04T08:07:28.145Z,86.00
2019-04-04T08:09:57.707Z,84.60
2019-04-04T08:12:51.556Z,84.10
2019-04-04T08:15:30.757Z,85.20
2019-04-04T08:18:29.178Z,84.50
2019-04-04T08:20:58.923Z,84.20
2019-04-04T08:23:29.222Z,83.90
2019-04-04T08:25:59.204Z,83.90
2019-04-04T08:28:28.800Z,84.20
2019-04-04T08:30:58.421Z,83.80
2019-04-04T08:33:28.139Z,82.00
2019-04-04T08:36:05.833Z,82.30
2019-04-04T08:38:29.236Z,82.00
2019-04-04T08:40:58.873Z,81.60
2019-04-04T08:43:28.477Z,81.00
2019-04-04T08:45:58.075Z,82.30
2019-04-04T08:48:27.788Z,81.10
2019-04-04T08:50:57.368Z,81.10
2019-04-04T08:53:38.935Z,81.20
2019-04-04T08:55:58.296Z,81.40
2019-04-04T08:58:27.931Z,79.90
2019-04-04T09:00:57.516Z,80.20
2019-04-04T09:03:28.989Z,79.20
2019-04-04T09:05:59.012Z,78.70
2019-04-04T09:08:28.594Z,80.50
2019-04-04T09:10:58.290Z,79.50
2019-04-04T09:13:27.912Z,79.70
2019-04-04T09:15:57.533Z,79.60
2019-04-04T09:18:27.243Z,78.90
2019-04-04T09:20:56.892Z,78.80
2019-04-04T09:23:26.558Z,80.20
2019-04-04T09:26:05.356Z,78.50
2019-04-04T09:28:27.472Z,79.00
2019-04-04T09:30:57.148Z,78.10
2019-04-04T09:33:26.728Z,79.50
2019-04-04T09:35:56.484Z,76.60
2019-04-04T09:38:28.964Z,76.70
2019-04-04T09:40:57.440Z,77.70
2019-04-04T09:43:27.153Z,77.10
2019-04-04T09:45:56.942Z,75.40
2019-04-04T09:48:26.580Z,76.80
2019-04-04T09:50:56.213Z,75.30
2019-04-04T09:53:25.924Z,75.20
2019-04-04T09:55:55.608Z,73.40
2019-04-04T09:58:25.236Z,71.70
2019-04-04T10:00:54.985Z,71.20
2019-04-04T10:03:24.603Z,72.40
2019-04-04T10:05:54.269Z,72.80
2019-04-04T10:08:26.853Z,70.40
2019-04-04T10:10:56.506Z,70.00
2019-04-04T10:13:26.165Z,67.40
2019-04-04T10:15:55.812Z,61.20
2019-04-04T10:18:26.372Z,58.50
2019-04-04T10:20:55.989Z,56.70
2019-04-04T10:23:25.653Z,58.20
2019-04-04T10:25:55.352Z,58.00
2019-04-04T10:28:25.086Z,55.30
2019-04-04T10:30:54.737Z,55.60
2019-04-04T10:33:24.409Z,55.80
2019-04-04T10:35:54.137Z,54.80
2019-04-04T10:38:23.723Z,53.50
2019-04-04T10:40:53.379Z,54.20
2019-04-04T10:43:23.121Z,52.80
2019-04-04T10:45:52.815Z,53.30
2019-04-04T10:48:22.403Z,52.50
2019-04-04T10:50:52.085Z,51.80
2019-04-04T10:53:21.708Z,50.60
2019-04-04T10:55:51.366Z,51.50
2019-04-04T10:58:21.142Z,50.80
2019-04-04T11:00:50.737Z,52.20
2019-04-04T11:03:20.389Z,52.10
2019-04-04T11:05:50.099Z,51.40
2019-04-04T11:08:19.848Z,51.20
2019-04-04T11:10:49.478Z,51.30
2019-04-04T11:13:19.082Z,51.40
2019-04-04T11:15:48.733Z,50.40
2019-04-04T11:18:18.396Z,50.80
2019-04-04T11:20:48.068Z,50.00
2019-04-04T11:23:17.763Z,50.10
2019-04-04T11:25:47.469Z,50.50
2019-04-04T11:28:17.218Z,50.20
2019-04-04T11:30:46.837Z,50.10
2019-04-04T11:33:16.516Z,50.20
2019-04-04T11:35:46.237Z,50.40
2019-04-04T11:38:15.974Z,50.40
2019-04-04T11:40:45.796Z,49.10
2019-04-04T11:43:15.509Z,49.70
2019-04-04T11:45:45.159Z,49.30
2019-04-04T11:48:14.787Z,51.20
2019-04-04T11:50:44.510Z,49.40
2019-04-04T11:53:14.144Z,49.10
2019-04-04T11:55:43.758Z,48.50
2019-04-04T11:58:13.474Z,48.60
2019-04-04T12:00:45.999Z,49.90
2019-04-04T12:03:15.597Z,49.50
2019-04-04T12:05:45.356Z,50.90
2019-04-04T12:08:15.040Z,49.40
2019-04-04T12:10:44.656Z,52.00
2019-04-04T12:13:14.340Z,48.20
2019-04-04T12:15:44.015Z,48.20
2019-04-04T12:18:13.600Z,48.80
2019-04-04T12:20:43.616Z,47.90
2019-04-04T12:23:13.421Z,47.90
2019-04-04T12:25:43.087Z,48.00
2019-04-04T12:28:12.938Z,48.30
2019-04-04T12:30:43.013Z,47.70
2019-04-04T12:33:12.702Z,48.00
2019-04-04T12:35:42.378Z,48.00
2019-04-04T12:38:11.952Z,47.50
2019-04-04T12:40:41.555Z,49.10
2019-04-04T12:43:11.233Z,47.50
2019-04-04T12:45:40.941Z,46.90
2019-04-04T12:48:10.565Z,46.60
2019-04-04T12:50:40.289Z,47.10
2019-04-04T12:53:09.875Z,47.30
2019-04-04T12:55:39.525Z,46.40
2019-04-04T12:58:10.845Z,46.80
2019-04-04T13:00:43.223Z,46.30
2019-04-04T13:03:12.916Z,46.10
2019-04-04T13:05:43.013Z,47.20
2019-04-04T13:08:12.609Z,46.50
2019-04-04T13:10:42.304Z,46.20
2019-04-04T13:13:12.265Z,45.40
2019-04-04T13:15:41.881Z,45.90
2019-04-04T13:18:11.558Z,45.40
2019-04-04T13:20:41.269Z,46.20
2019-04-04T13:23:10.935Z,46.40
2019-04-04T13:25:40.592Z,46.30
2019-04-04T13:28:10.292Z,45.80
2019-04-04T13:30:39.986Z,46.10
2019-04-04T13:33:09.641Z,46.00
2019-04-04T13:35:39.274Z,45.40
2019-04-04T13:38:08.979Z,45.80
2019-04-04T13:40:45.284Z,45.20
2019-04-04T13:43:09.840Z,45.10
2019-04-04T13:45:39.525Z,46.20
2019-04-04T13:48:10.675Z,45.30
2019-04-04T13:50:40.344Z,44.60
2019-04-04T13:53:10.009Z,44.90
2019-04-04T13:55:39.685Z,44.90
2019-04-04T13:58:09.265Z,45.00
2019-04-04T14:00:39.001Z,46.10
2019-04-04T14:03:08.637Z,44.80
2019-04-04T14:05:38.382Z,44.70
2019-04-04T14:08:08.073Z,45.10
2019-04-04T14:10:37.736Z,45.10
2019-04-04T14:13:07.450Z,44.40
2019-04-04T14:15:37.167Z,44.30
2019-04-04T14:18:22.372Z,45.30
2019-04-04T14:21:03.295Z,44.40
2019-04-04T14:23:25.456Z,44.90
2019-04-04T14:25:55.058Z,44.50
2019-04-04T14:28:26.527Z,44.70
2019-04-04T14:30:55.956Z,44.00
2019-04-04T14:33:25.635Z,43.40
2019-04-04T14:35:55.268Z,42.90
2019-04-04T14:38:24.961Z,43.60
2019-04-04T14:40:54.669Z,44.50
2019-04-04T14:43:24.298Z,44.00
2019-04-04T14:45:54.118Z,46.70
2019-04-04T14:48:23.706Z,46.00
2019-04-04T14:50:53.362Z,46.90
2019-04-04T14:53:24.147Z,44.50
2019-04-04T14:55:55.421Z,44.30
2019-04-04T14:58:25.635Z,43.80
2019-04-04T15:00:55.400Z,44.10
2019-04-04T15:03:25.122Z,44.40
2019-04-04T15:05:54.822Z,45.10
2019-04-04T15:08:24.470Z,45.40
2019-04-04T15:10:54.130Z,46.10
2019-04-04T15:13:23.905Z,46.00
2019-04-04T15:16:16.647Z,46.20
2019-04-04T15:18:46.660Z,46.40
2019-04-04T15:21:16.421Z,45.80
2019-04-04T15:23:46.059Z,45.80
2019-04-04T15:26:15.887Z,46.90
2019-04-04T15:28:48.004Z,47.50
2019-04-04T15:31:17.899Z,47.70
2019-04-04T15:33:50.367Z,47.50
2019-04-04T15:36:19.310Z,47.90
2019-04-04T15:38:49.021Z,48.70
2019-04-04T15:42:19.638Z,48.30
2019-04-04T15:45:49.954Z,49.90
2019-04-04T15:48:26.184Z,48.70
2019-04-04T15:52:19.599Z,47.80
2019-04-04T15:55:15.584Z,48.40
2019-04-04T15:57:55.949Z,48.90
2019-04-04T16:00:26.375Z,48.60
2019-04-04T16:03:28.263Z,48.60
2019-04-04T16:06:08.378Z,48.60
2019-04-04T16:08:38.386Z,48.20
2019-04-04T16:11:15.086Z,65.60
2019-04-04T16:13:51.196Z,51.50
2019-04-04T16:16:21.022Z,50.60
2019-04-04T16:18:50.750Z,50.30
2019-04-04T16:21:23.420Z,51.50
2019-04-04T16:23:56.476Z,51.60
2019-04-04T16:26:30.339Z,51.50
2019-04-04T16:29:03.151Z,51.50
2019-04-04T16:31:36.999Z,52.00
2019-04-04T16:34:11.875Z,51.30
2019-04-04T16:36:44.702Z,52.40
2019-04-04T16:39:14.787Z,52.30
2019-04-04T16:42:03.119Z,51.80
2019-04-04T16:44:52.601Z,52.30
2019-04-04T16:47:22.532Z,53.10
2019-04-04T16:50:02.447Z,52.90
2019-04-04T16:52:59.785Z,53.10
2019-04-04T16:55:33.417Z,53.30
2019-04-04T16:58:15.519Z,53.40
2019-04-04T17:00:49.997Z,54.00
2019-04-04T17:03:19.558Z,54.20
2019-04-04T17:05:49.248Z,54.50
2019-04-04T17:08:18.934Z,55.00
2019-04-04T17:10:48.614Z,55.20
2019-04-04T17:13:18.751Z,54.70
2019-04-04T17:15:48.455Z,55.70
2019-04-04T17:18:18.139Z,55.60
2019-04-04T17:20:47.881Z,55.60
2019-04-04T17:23:17.720Z,56.00
2019-04-04T17:25:52.363Z,55.60
2019-04-04T17:28:39.882Z,57.00
2019-04-04T17:37:28.176Z,58.60
2019-04-04T17:39:57.879Z,58.30
2019-04-04T17:42:31.312Z,59.60
2019-04-04T17:45:01.557Z,59.20
2019-04-04T17:47:30.783Z,60.00
2019-04-04T17:50:00.728Z,60.40
2019-04-04T17:52:30.420Z,60.40
2019-04-04T17:55:00.009Z,61.80
2019-04-04T17:57:29.584Z,62.40
2019-04-04T17:59:59.155Z,63.30
2019-04-04T18:02:28.761Z,61.10
2019-04-04T18:04:58.298Z,61.60
2019-04-04T18:07:27.855Z,62.10
2019-04-04T18:09:57.417Z,63.20
2019-04-04T18:12:34.662Z,64.30
2019-04-04T18:14:58.204Z,65.60
2019-04-04T18:17:27.816Z,66.60
2019-04-04T18:19:57.355Z,67.80
2019-04-04T18:22:26.981Z,69.00
2019-04-04T18:24:56.604Z,69.30
2019-04-04T18:27:26.189Z,69.70
2019-04-04T18:29:55.880Z,70.00
2019-04-04T18:32:25.516Z,70.30
2019-04-04T18:34:55.500Z,70.60
2019-04-04T18:37:25.543Z,71.50
2019-04-04T18:39:55.708Z,72.70
2019-04-04T18:42:25.325Z,73.10
2019-04-04T18:44:54.887Z,73.70
2019-04-04T18:47:24.514Z,73.50
2019-04-04T18:49:54.177Z,73.30
2019-04-04T18:52:24.226Z,73.60
2019-04-04T18:54:53.869Z,72.90
2019-04-04T18:57:23.475Z,72.70
2019-04-04T18:59:53.130Z,73.00
2019-04-04T19:02:22.911Z,72.90
2019-04-04T19:04:52.520Z,72.90
2019-04-04T19:07:22.168Z,72.30
2019-04-04T19:09:51.767Z,72.40
2019-04-04T19:12:21.392Z,73.30
2019-04-04T19:14:51.126Z,73.90
2019-04-04T19:17:20.820Z,74.80
2019-04-04T19:19:50.549Z,75.10
2019-04-04T19:22:20.134Z,75.60
2019-04-04T19:24:49.709Z,75.80
2019-04-04T19:27:19.300Z,75.90
2019-04-04T19:29:48.840Z,75.60
2019-04-04T19:32:18.448Z,76.00
2019-04-04T19:34:47.990Z,76.30
2019-04-04T19:37:17.550Z,76.20
2019-04-04T19:39:47.173Z,76.50
2019-04-04T19:42:16.715Z,76.50
2019-04-04T19:44:53.403Z,76.40
2019-04-04T19:47:20.307Z,76.00
2019-04-04T19:49:49.902Z,75.40
2019-04-04T19:52:19.419Z,76.20
2019-04-04T19:54:49.076Z,76.20
2019-04-04T19:57:18.628Z,76.40
2019-04-04T19:59:48.141Z,76.90
2019-04-04T20:02:17.695Z,77.00
2019-04-04T20:04:47.570Z,77.00
2019-04-04T20:07:17.074Z,77.60
2019-04-04T20:09:46.625Z,77.30
2019-04-04T20:12:16.291Z,77.20
2019-04-04T20:14:45.964Z,77.00
2019-04-04T20:17:15.732Z,77.00
2019-04-04T20:19:45.349Z,76.60
2019-04-04T20:22:14.983Z,75.90
2019-04-04T20:24:45.029Z,75.30
2019-04-04T20:27:14.685Z,75.30
2019-04-04T20:29:44.658Z,75.00
2019-04-04T20:32:14.396Z,74.70
2019-04-04T20:34:43.962Z,74.60
2019-04-04T20:37:13.805Z,74.50
2019-04-04T20:39:43.893Z,74.20
2019-04-04T20:42:13.529Z,74.50
2019-04-04T20:44:43.176Z,74.50
2019-04-04T20:47:12.886Z,74.70
2019-04-04T20:49:42.893Z,74.50
2019-04-04T20:52:12.683Z,75.00
2019-04-04T20:54:44.263Z,75.50
2019-04-04T20:57:13.891Z,75.70
2019-04-04T20:59:43.501Z,76.20
2019-04-04T21:02:13.209Z,77.50
2019-04-04T21:04:43.027Z,78.70
2019-04-04T21:07:14.125Z,79.60
2019-04-04T21:09:43.821Z,80.50
2019-04-04T21:12:13.469Z,81.30
2019-04-04T21:14:43.072Z,82.40
2019-04-04T21:17:12.800Z,83.30
2019-04-04T21:19:42.432Z,84.10
2019-04-04T21:22:12.042Z,84.70
2019-04-04T21:24:41.671Z,85.40
2019-04-04T21:27:11.333Z,85.30
2019-04-04T21:29:41.034Z,85.90
2019-04-04T21:32:10.719Z,86.60
2019-04-04T21:34:40.387Z,86.70
2019-04-04T21:37:10.017Z,86.60
2019-04-04T21:39:39.688Z,86.60
2019-04-04T21:42:09.366Z,86.90
2019-04-04T21:44:39.155Z,87.30
2019-04-04T21:47:08.832Z,87.60
2019-04-04T21:49:38.529Z,87.70
2019-04-04T21:52:08.122Z,87.80
2019-04-04T21:54:38.963Z,87.70
2019-04-04T21:57:08.688Z,87.50
2019-04-04T21:59:38.425Z,87.40
2019-04-04T22:02:08.214Z,86.90
2019-04-04T22:04:37.861Z,86.50
2019-04-04T22:07:07.492Z,86.80
2019-04-04T22:09:37.205Z,86.80
2019-04-04T22:12:06.831Z,87.10
2019-04-04T22:14:36.424Z,87.20
2019-04-04T22:17:06.080Z,87.40
2019-04-04T22:19:35.663Z,87.40
2019-04-04T22:22:05.280Z,87.50
2019-04-04T22:24:34.968Z,87.50
2019-04-04T22:27:04.583Z,87.50
2019-04-04T22:29:34.179Z,87.50
2019-04-04T22:32:03.912Z,88.00
2019-04-04T22:34:33.575Z,88.50
2019-04-04T22:37:03.284Z,88.90
2019-04-04T22:39:32.908Z,89.00
2019-04-04T22:42:02.547Z,89.30
2019-04-04T22:44:34.971Z,89.40
2019-04-04T22:47:03.498Z,89.20
2019-04-04T22:49:33.116Z,89.50
2019-04-04T22:52:02.712Z,89.50
2019-04-04T22:54:32.421Z,89.70
2019-04-04T22:57:02.180Z,89.80
2019-04-04T22:59:31.807Z,89.60
2019-04-04T23:02:01.536Z,89.90
2019-04-04T23:04:31.215Z,90.00
2019-04-04T23:07:00.892Z,89.90
2019-04-04T23:09:30.520Z,90.00
2019-04-04T23:12:00.113Z,90.00
2019-04-04T23:14:29.715Z,90.00
2019-04-04T23:16:59.373Z,90.00
2019-04-04T23:19:29.005Z,90.10
2019-04-04T23:21:58.638Z,90.10
2019-04-04T23:24:28.390Z,90.30
2019-04-04T23:26:58.020Z,90.40
2019-04-04T23:29:27.726Z,90.40
2019-04-04T23:31:57.387Z,90.40
2019-04-04T23:34:27.026Z,90.60
2019-04-04T23:36:56.640Z,90.70
2019-04-04T23:39:26.303Z,90.80
2019-04-04T23:41:55.973Z,90.80
2019-04-04T23:44:25.633Z,90.90
2019-04-04T23:46:55.309Z,91.00
2019-04-04T23:49:24.912Z,91.10
2019-04-04T23:51:54.525Z,91.20
2019-04-04T23:54:24.299Z,91.30
2019-04-04T23:56:53.972Z,91.50
2019-04-04T23:59:23.609Z,91.60
